Terminal Aerodrome Forecast
Issued by NWS Charleston, WV

Current Version | Previous Version | Graphics & Text | Print | Product List | Glossary On
Versions: 1 2 3 4 5 6 7 8 9 10 11 12 13 14 15 16 17 18 19 20 21 22 23 24 25 26 27
000
FTUS41 KRLX 071510 AAA
TAFPKB
TAF AMD
KPKB 071510Z 0715/0812 21012G20KT P6SM BKN035
      TEMPO 0715/0716 BKN020
     FM071900 22011G19KT P6SM VCTS BKN035CB
     FM072100 22008KT 3SM TSRA BR BKN030CB BKN080
     FM080200 20006KT 3SM SHRA BR VCTS BKN025CB BKN080=

USA.gov is the U.S. government's official web portal to all federal, state and local government web resources and services.